Time;durP1;ratioP1;P1;durP2;ratioP2;P2;SDS_P1;SDS_P2;PMS_P1;PMS_P2;Temp;Humidity;BMP_temperature;BMP_pressure;BME280_temperature;BME280_humidity;BME280_pressure;Samples;Min_cycle;Max_cycle;Signal;HPM_P1;HPM_P2
2023/07/02 00:00:05;;;;;;;4.47;1.40;;;;;23.50;99621.00;;;;2058722;28;20698;-72
2023/07/02 00:01:05;;;;;;;1.95;1.50;;;;;23.50;99622.00;;;;2054188;28;20266;-72
2023/07/02 00:02:05;;;;;;;4.13;1.50;;;;;23.60;99626.00;;;;2044675;28;20777;-72
2023/07/02 00:03:06;;;;;;;1.70;1.60;;;;;23.50;99619.00;;;;2061922;28;20765;-72
2023/07/02 00:04:08;;;;;;;3.07;1.20;;;;;23.60;99615.00;;;;2064724;28;20690;-72
2023/07/02 00:05:09;;;;;;;2.75;1.55;;;;;23.60;99616.00;;;;2067535;28;20265;-72
2023/07/02 00:06:09;;;;;;;1.90;1.37;;;;;23.50;99625.00;;;;2064753;28;20632;-72
2023/07/02 00:07:09;;;;;;;1.93;1.60;;;;;23.50;99613.00;;;;2040913;28;20244;-72
2023/07/02 00:08:10;;;;;;;2.43;1.57;;;;;23.60;99623.00;;;;2041814;28;20279;-72
2023/07/02 00:09:10;;;;;;;1.50;1.20;;;;;23.50;99622.00;;;;2045335;28;20216;-72
2023/07/02 00:10:11;;;;;;;3.50;1.40;;;;;23.50;99624.00;;;;2036457;28;20389;-72
2023/07/02 00:11:12;;;;;;;1.53;1.13;;;;;23.60;99625.00;;;;2041572;29;20709;-72
2023/07/02 00:12:12;;;;;;;2.53;1.45;;;;;23.50;99617.00;;;;2043991;28;20746;-72
2023/07/02 00:13:14;;;;;;;2.77;1.73;;;;;23.50;99616.00;;;;2051084;28;20236;-72
2023/07/02 00:14:14;;;;;;;1.67;1.50;;;;;23.60;99615.00;;;;2043398;28;20216;-72
2023/07/02 00:15:14;;;;;;;1.97;1.30;;;;;23.50;99626.00;;;;2052611;28;20219;-72
2023/07/02 00:16:15;;;;;;;2.20;1.30;;;;;23.50;99615.00;;;;2058425;28;20207;-72
2023/07/02 00:17:15;;;;;;;3.37;1.33;;;;;23.60;99620.00;;;;2044572;28;20726;-72
2023/07/02 00:18:16;;;;;;;1.57;1.40;;;;;23.60;99620.00;;;;2063890;28;20748;-72
2023/07/02 00:19:16;;;;;;;2.10;1.50;;;;;23.60;99622.00;;;;2064787;28;20211;-72
2023/07/02 00:20:17;;;;;;;2.07;1.30;;;;;23.50;99615.00;;;;2061280;28;20235;-72
2023/07/02 00:21:17;;;;;;;4.27;1.70;;;;;23.60;99618.00;;;;2067376;28;20221;-72
2023/07/02 00:22:17;;;;;;;4.10;1.63;;;;;23.60;99627.00;;;;2057256;28;20797;-72
2023/07/02 00:23:18;;;;;;;2.60;1.60;;;;;23.60;99620.00;;;;2067523;28;20691;-72
2023/07/02 00:24:18;;;;;;;2.83;1.60;;;;;23.60;99623.00;;;;2064899;28;20218;-72
2023/07/02 00:25:18;;;;;;;2.30;1.53;;;;;23.60;99613.00;;;;2066398;28;20330;-72
2023/07/02 00:26:19;;;;;;;2.40;1.70;;;;;23.60;99621.00;;;;2066878;28;20218;-72
2023/07/02 00:27:19;;;;;;;2.13;1.37;;;;;23.60;99621.00;;;;2053765;28;20586;-72
2023/07/02 00:28:19;;;;;;;1.87;1.50;;;;;23.60;99615.00;;;;2064476;28;20635;-72
2023/07/02 00:29:20;;;;;;;1.83;1.40;;;;;23.60;99618.00;;;;2064717;28;20667;-72
2023/07/02 00:30:20;;;;;;;2.47;1.40;;;;;23.60;99607.00;;;;2067687;28;20237;-72
2023/07/02 00:31:20;;;;;;;2.17;1.47;;;;;23.60;99611.00;;;;2064634;28;20258;-72
2023/07/02 00:32:21;;;;;;;3.83;1.60;;;;;23.60;99611.00;;;;2053818;28;20238;-72
2023/07/02 00:33:21;;;;;;;2.23;1.40;;;;;23.60;99609.00;;;;2061468;28;20208;-72
2023/07/02 00:34:21;;;;;;;2.50;1.93;;;;;23.60;99610.00;;;;2063329;28;20260;-72
2023/07/02 00:35:22;;;;;;;1.73;1.60;;;;;23.60;99614.00;;;;2064139;28;20203;-72
2023/07/02 00:36:22;;;;;;;1.70;1.50;;;;;23.60;99617.00;;;;2058436;28;20208;-72
2023/07/02 00:37:22;;;;;;;2.13;1.40;;;;;23.60;99617.00;;;;2051949;28;20208;-72
2023/07/02 00:38:23;;;;;;;2.00;1.60;;;;;23.60;99618.00;;;;2060032;28;20242;-72
2023/07/02 00:39:23;;;;;;;1.93;1.60;;;;;23.60;99617.00;;;;2063649;28;20211;-72
2023/07/02 00:40:23;;;;;;;1.63;1.50;;;;;23.60;99613.00;;;;2064299;28;20211;-72
2023/07/02 00:41:24;;;;;;;2.17;1.63;;;;;23.60;99616.00;;;;2061383;28;20208;-72
2023/07/02 00:42:29;;;;;;;1.67;1.57;;;;;23.60;99615.00;;;;2056609;28;20294;-72
2023/07/02 00:43:30;;;;;;;2.22;1.60;;;;;23.60;99615.00;;;;2067911;28;20602;-72
2023/07/02 00:44:30;;;;;;;2.80;1.83;;;;;23.60;99613.00;;;;2065939;28;20199;-72
2023/07/02 00:45:31;;;;;;;1.70;1.43;;;;;23.60;99611.00;;;;2063483;28;20509;-72
2023/07/02 00:46:31;;;;;;;2.80;1.60;;;;;23.60;99615.00;;;;2064987;28;20308;-72
2023/07/02 00:47:34;;;;;;;2.17;1.50;;;;;23.60;99619.00;;;;2054904;28;20292;-72
2023/07/02 00:48:35;;;;;;;2.00;1.80;;;;;23.60;99594.00;;;;2056166;28;20227;-72
2023/07/02 00:49:35;;;;;;;2.43;1.50;;;;;23.60;99617.00;;;;2061653;28;20222;-72
2023/07/02 00:50:35;;;;;;;2.60;1.83;;;;;23.60;99609.00;;;;2061723;28;20979;-72
2023/07/02 00:51:37;;;;;;;4.10;1.80;;;;;23.60;99612.00;;;;2053147;28;20633;-72
2023/07/02 00:52:38;;;;;;;2.00;1.80;;;;;23.60;99614.00;;;;2041267;28;20227;-72
2023/07/02 00:53:38;;;;;;;2.43;1.67;;;;;23.60;99613.00;;;;2063041;28;20227;-72
2023/07/02 00:54:40;;;;;;;3.23;1.90;;;;;23.60;99612.00;;;;2048318;28;20460;-72
2023/07/02 00:55:40;;;;;;;2.30;1.45;;;;;23.60;99610.00;;;;2047531;28;20220;-72
2023/07/02 00:56:41;;;;;;;2.40;1.57;;;;;23.60;99618.00;;;;2055411;28;20239;-72
2023/07/02 00:57:46;;;;;;;2.27;1.67;;;;;23.60;99609.00;;;;2053441;28;20216;-72
2023/07/02 00:58:48;;;;;;;3.42;1.75;;;;;23.60;99618.00;;;;2039520;28;20217;-72
2023/07/02 00:59:48;;;;;;;2.60;1.70;;;;;23.60;99608.00;;;;2046826;28;20788;-72
2023/07/02 01:00:49;;;;;;;2.83;1.80;;;;;23.60;99606.00;;;;2047786;28;20204;-72
2023/07/02 01:01:49;;;;;;;2.00;1.70;;;;;23.60;99621.00;;;;2044369;28;20268;-72
2023/07/02 01:02:58;;;;;;;2.43;2.03;;;;;23.60;99613.00;;;;2056545;28;20671;-72
2023/07/02 01:04:00;;;;;;;3.17;1.75;;;;;23.60;99616.00;;;;2061876;28;20219;-72
2023/07/02 01:05:01;;;;;;;2.72;1.90;;;;;23.60;99614.00;;;;2062984;28;20214;-72
2023/07/02 01:06:03;;;;;;;1.90;1.60;;;;;23.60;99606.00;;;;2065037;28;20249;-72
2023/07/02 01:07:08;;;;;;;2.28;1.98;;;;;23.60;99609.00;;;;2052616;28;20261;-72
2023/07/02 01:08:10;;;;;;;2.47;1.77;;;;;23.60;99596.00;;;;2067865;28;20306;-72
2023/07/02 01:09:10;;;;;;;4.28;2.25;;;;;23.60;99605.00;;;;2062869;28;20211;-72
2023/07/02 01:10:11;;;;;;;2.40;2.10;;;;;23.60;99599.00;;;;2063446;28;20238;-72
2023/07/02 01:11:11;;;;;;;2.90;2.03;;;;;23.60;99606.00;;;;2065309;28;20241;-72
2023/07/02 01:12:11;;;;;;;2.60;1.70;;;;;23.60;99598.00;;;;2040135;28;20228;-72
2023/07/02 01:13:14;;;;;;;3.53;1.90;;;;;23.60;99612.00;;;;2039056;29;20279;-72
2023/07/02 01:14:19;;;;;;;2.83;2.10;;;;;23.60;99580.00;;;;2044384;28;20212;-72
2023/07/02 01:15:19;;;;;;;5.13;2.10;;;;;23.60;99611.00;;;;2047287;28;20212;-72
2023/07/02 01:16:20;;;;;;;2.63;1.90;;;;;23.60;99600.00;;;;2050056;28;20322;-72
2023/07/02 01:17:20;;;;;;;3.40;2.00;;;;;23.60;99603.00;;;;2048242;28;20219;-72
2023/07/02 01:18:20;;;;;;;2.50;1.83;;;;;23.60;99600.00;;;;2056866;28;20234;-72
2023/07/02 01:19:52;;;;;;;3.10;2.43;;;;;23.60;99603.00;;;;2045236;28;20205;-72
2023/07/02 01:20:53;;;;;;;2.65;1.80;;;;;23.60;99603.00;;;;2055668;28;20831;-72
2023/07/02 01:21:53;;;;;;;3.63;1.90;;;;;23.60;99606.00;;;;2045770;28;20243;-72
2023/07/02 01:22:54;;;;;;;4.30;2.00;;;;;23.60;99594.00;;;;2061142;28;21009;-72
2023/07/02 01:23:54;;;;;;;4.13;2.13;;;;;23.60;99588.00;;;;2061730;28;20245;-72
2023/07/02 01:24:54;;;;;;;4.60;2.27;;;;;23.60;99582.00;;;;2054639;28;20220;-72
2023/07/02 01:25:58;;;;;;;1.93;1.77;;;;;23.60;99581.00;;;;2055681;28;20254;-72
2023/07/02 01:27:01;;;;;;;3.10;1.83;;;;;23.60;99577.00;;;;2044097;28;20223;-72
2023/07/02 01:28:02;;;;;;;1.95;1.50;;;;;23.60;99576.00;;;;2054674;28;20715;-72
2023/07/02 01:29:18;;;;;;;4.22;2.30;;;;;23.60;99574.00;;;;2066895;28;20663;-72
2023/07/02 01:30:18;;;;;;;2.63;2.10;;;;;23.60;99572.00;;;;2062665;28;20942;-72
2023/07/02 01:31:19;;;;;;;2.40;1.90;;;;;23.60;99572.00;;;;2059304;28;20208;-72
2023/07/02 01:32:20;;;;;;;2.77;2.03;;;;;23.60;99571.00;;;;2053127;28;20273;-72
2023/07/02 01:33:20;;;;;;;3.60;2.20;;;;;23.60;99582.00;;;;2062325;28;20299;-72
2023/07/02 01:34:20;;;;;;;3.87;2.10;;;;;23.60;99580.00;;;;2066886;28;20283;-72
2023/07/02 01:35:21;;;;;;;3.43;2.27;;;;;23.60;99576.00;;;;2066681;28;20244;-72
2023/07/02 01:36:21;;;;;;;5.43;2.77;;;;;23.60;99579.00;;;;2066906;28;20207;-72
2023/07/02 01:37:21;;;;;;;2.80;2.17;;;;;23.60;99583.00;;;;2055326;28;20565;-72
2023/07/02 01:38:22;;;;;;;2.60;2.27;;;;;23.60;99575.00;;;;2065632;28;20576;-72
2023/07/02 01:39:22;;;;;;;4.13;2.20;;;;;23.60;99578.00;;;;2066977;28;20207;-72
2023/07/02 01:40:22;;;;;;;3.77;2.60;;;;;23.60;99580.00;;;;2062680;28;20213;-72
2023/07/02 01:41:23;;;;;;;2.40;2.20;;;;;23.60;99587.00;;;;2063691;28;20882;-72
2023/07/02 01:42:23;;;;;;;2.90;2.37;;;;;23.60;99598.00;;;;2054246;28;20232;-72
2023/07/02 01:43:24;;;;;;;4.10;2.00;;;;;23.60;99587.00;;;;2063298;28;20213;-72
2023/07/02 01:44:24;;;;;;;2.93;2.20;;;;;23.60;99592.00;;;;2060966;28;20861;-71
2023/07/02 01:45:25;;;;;;;3.63;2.33;;;;;23.60;99598.00;;;;2065108;28;20233;-71
2023/07/02 01:46:25;;;;;;;3.83;2.47;;;;;23.60;99605.00;;;;2064142;28;20230;-71
2023/07/02 01:47:25;;;;;;;3.73;2.73;;;;;23.60;99600.00;;;;2052794;28;20498;-71
2023/07/02 01:48:26;;;;;;;3.40;2.27;;;;;23.60;99607.00;;;;2067847;28;20206;-71
2023/07/02 01:49:26;;;;;;;2.60;1.83;;;;;23.60;99618.00;;;;2064540;28;20210;-72
2023/07/02 01:50:27;;;;;;;2.60;2.20;;;;;23.60;99619.00;;;;2061105;28;20254;-72
2023/07/02 01:51:27;;;;;;;2.63;2.20;;;;;23.60;99617.00;;;;2059513;28;20203;-72
2023/07/02 01:52:29;;;;;;;4.27;3.13;;;;;23.60;99622.00;;;;2053400;28;20240;-72
2023/07/02 01:53:29;;;;;;;2.58;2.05;;;;;23.60;99621.00;;;;2064681;28;20207;-72
2023/07/02 01:54:31;;;;;;;4.20;2.40;;;;;23.60;99618.00;;;;2065012;28;20230;-72
2023/07/02 01:55:31;;;;;;;4.78;2.38;;;;;23.60;99619.00;;;;2057128;28;20207;-72
2023/07/02 01:56:32;;;;;;;4.30;2.77;;;;;23.60;99620.00;;;;2061164;28;20642;-72
2023/07/02 01:57:32;;;;;;;2.73;1.83;;;;;23.60;99613.00;;;;2054080;28;20690;-72
2023/07/02 01:58:32;;;;;;;3.60;2.47;;;;;23.60;99621.00;;;;2064000;28;20679;-72
2023/07/02 01:59:33;;;;;;;2.63;2.23;;;;;23.60;99617.00;;;;2066868;28;20584;-72
2023/07/02 02:00:33;;;;;;;3.93;2.63;;;;;23.60;99619.00;;;;2065382;28;20584;-72
2023/07/02 02:01:33;;;;;;;3.70;2.63;;;;;23.60;99619.00;;;;2062388;28;20837;-72
2023/07/02 02:02:34;;;;;;;2.40;2.03;;;;;23.60;99615.00;;;;2054968;28;20223;-72
2023/07/02 02:03:35;;;;;;;3.10;2.37;;;;;23.60;99621.00;;;;2051486;28;20217;-72
2023/07/02 02:04:35;;;;;;;3.73;2.60;;;;;23.60;99617.00;;;;2050973;28;20455;-72
2023/07/02 02:05:36;;;;;;;3.40;2.60;;;;;23.60;99626.00;;;;2057207;28;20636;-72
2023/07/02 02:06:36;;;;;;;3.53;2.30;;;;;23.60;99618.00;;;;2066046;28;20222;-72
2023/07/02 02:07:37;;;;;;;4.20;2.90;;;;;23.60;99619.00;;;;2045446;28;20306;-72
2023/07/02 02:08:37;;;;;;;5.07;2.67;;;;;23.60;99628.00;;;;2055305;28;20215;-72
2023/07/02 02:09:37;;;;;;;5.03;3.30;;;;;23.60;99631.00;;;;2064439;28;20222;-72
2023/07/02 02:10:38;;;;;;;4.03;2.97;;;;;23.60;99637.00;;;;2064114;28;20210;-72
2023/07/02 02:11:39;;;;;;;3.80;2.50;;;;;23.60;99628.00;;;;2064872;28;20226;-72
2023/07/02 02:12:40;;;;;;;4.10;2.47;;;;;23.60;99626.00;;;;2048788;28;20281;-72
2023/07/02 02:13:40;;;;;;;3.67;2.60;;;;;23.60;99631.00;;;;2057427;28;20327;-72
2023/07/02 02:14:41;;;;;;;5.30;2.93;;;;;23.60;99638.00;;;;2061360;28;20222;-72
2023/07/02 02:15:41;;;;;;;3.53;2.30;;;;;23.50;99632.00;;;;2058770;28;20219;-72
2023/07/02 02:16:45;;;;;;;4.50;2.67;;;;;23.60;99635.00;;;;2050467;28;20251;-72
2023/07/02 02:17:45;;;;;;;2.35;1.95;;;;;23.60;99635.00;;;;2059251;28;20222;-72
2023/07/02 02:18:45;;;;;;;4.30;2.90;;;;;23.60;99640.00;;;;2056391;28;20302;-72
2023/07/02 02:19:46;;;;;;;4.27;2.83;;;;;23.60;99630.00;;;;2049339;28;20255;-72
2023/07/02 02:20:46;;;;;;;3.83;2.60;;;;;23.60;99635.00;;;;2056025;28;20219;-72
2023/07/02 02:21:46;;;;;;;5.57;3.10;;;;;23.60;99630.00;;;;2047502;28;20219;-72
2023/07/02 02:22:47;;;;;;;3.00;2.43;;;;;23.60;99634.00;;;;2063735;28;20737;-72
2023/07/02 02:23:47;;;;;;;4.10;3.13;;;;;23.60;99631.00;;;;2067652;28;20222;-71
2023/07/02 02:24:48;;;;;;;4.30;3.20;;;;;23.60;99634.00;;;;2064090;28;20218;-71
2023/07/02 02:25:48;;;;;;;5.03;2.97;;;;;23.60;99635.00;;;;2070580;28;20214;-71
2023/07/02 02:26:48;;;;;;;4.47;2.73;;;;;23.60;99624.00;;;;2054180;28;20258;-71
2023/07/02 02:27:48;;;;;;;5.20;2.80;;;;;23.60;99635.00;;;;2064755;28;20214;-71
2023/07/02 02:28:49;;;;;;;7.90;3.30;;;;;23.60;99637.00;;;;2060647;28;20267;-71
2023/07/02 02:29:49;;;;;;;7.03;3.33;;;;;23.60;99642.00;;;;2063880;28;20301;-71
2023/07/02 02:30:50;;;;;;;3.90;3.33;;;;;23.60;99646.00;;;;2071583;28;20626;-71
2023/07/02 02:31:50;;;;;;;4.10;3.27;;;;;23.60;99639.00;;;;2053563;28;20623;-71
2023/07/02 02:32:50;;;;;;;4.07;3.20;;;;;23.60;99644.00;;;;2056712;28;20216;-71
2023/07/02 02:33:51;;;;;;;4.13;3.10;;;;;23.60;99633.00;;;;2067018;28;20268;-71
2023/07/02 02:34:51;;;;;;;4.20;3.30;;;;;23.60;99645.00;;;;2065019;28;20214;-71
2023/07/02 02:35:52;;;;;;;4.30;3.50;;;;;23.60;99632.00;;;;2056710;28;20722;-71
2023/07/02 02:36:55;;;;;;;6.67;3.40;;;;;23.60;99640.00;;;;2053968;28;20219;-72
2023/07/02 02:37:55;;;;;;;6.95;3.75;;;;;23.60;99643.00;;;;2064724;28;20223;-72
2023/07/02 02:38:55;;;;;;;4.23;3.30;;;;;23.60;99635.00;;;;2065825;28;20238;-72
2023/07/02 02:39:57;;;;;;;4.50;4.00;;;;;23.60;99646.00;;;;2066717;28;20249;-72
2023/07/02 02:40:58;;;;;;;5.07;3.15;;;;;23.60;99637.00;;;;2064005;28;20219;-72
2023/07/02 02:41:58;;;;;;;3.60;3.17;;;;;23.60;99646.00;;;;2058877;28;20261;-72
2023/07/02 02:42:58;;;;;;;5.70;3.50;;;;;23.60;99645.00;;;;2057403;28;20219;-72
2023/07/02 02:43:58;;;;;;;4.60;3.27;;;;;23.60;99647.00;;;;2063861;28;20579;-72
2023/07/02 02:44:59;;;;;;;5.93;3.37;;;;;23.60;99639.00;;;;2067232;28;20262;-72
2023/07/02 02:45:59;;;;;;;6.70;4.10;;;;;23.60;99640.00;;;;2063716;28;20207;-72
2023/07/02 02:46:59;;;;;;;5.73;3.87;;;;;23.60;99641.00;;;;2060844;28;20288;-72
2023/07/02 02:48:00;;;;;;;6.13;4.07;;;;;23.60;99637.00;;;;2062743;28;20557;-72
2023/07/02 02:49:00;;;;;;;4.57;3.93;;;;;23.60;99636.00;;;;2057627;28;20220;-72
2023/07/02 02:50:00;;;;;;;6.30;4.33;;;;;23.60;99639.00;;;;2068891;28;20680;-72
2023/07/02 02:51:01;;;;;;;4.50;3.53;;;;;23.60;99636.00;;;;2064155;28;20249;-72
2023/07/02 02:52:01;;;;;;;5.10;4.17;;;;;23.60;99638.00;;;;2054596;28;20238;-71
2023/07/02 02:53:02;;;;;;;4.70;3.57;;;;;23.60;99633.00;;;;2063526;28;20222;-71
2023/07/02 02:54:02;;;;;;;6.00;3.97;;;;;23.60;99638.00;;;;2064284;28;20569;-71
2023/07/02 02:55:04;;;;;;;5.67;4.53;;;;;23.60;99633.00;;;;2061863;28;20458;-71
2023/07/02 02:56:05;;;;;;;6.43;4.40;;;;;23.60;99631.00;;;;2058645;28;20745;-71
2023/07/02 02:57:05;;;;;;;5.40;4.13;;;;;23.50;99631.00;;;;2053927;28;20215;-71
2023/07/02 02:58:05;;;;;;;5.77;4.00;;;;;23.50;99632.00;;;;2066686;28;20334;-71
2023/07/02 02:59:06;;;;;;;6.00;4.10;;;;;23.60;99633.00;;;;2064656;28;20223;-72
2023/07/02 03:00:07;;;;;;;5.00;4.00;;;;;23.50;99633.00;;;;2065380;28;20584;-72
2023/07/02 03:01:10;;;;;;;5.50;4.38;;;;;23.50;99635.00;;;;2066073;28;20296;-72
2023/07/02 03:02:10;;;;;;;6.70;4.53;;;;;23.50;99635.00;;;;2053739;28;20696;-72
2023/07/02 03:03:12;;;;;;;7.67;5.10;;;;;23.50;99640.00;;;;2068750;28;20244;-72
2023/07/02 03:04:12;;;;;;;7.05;4.63;;;;;23.60;99639.00;;;;2063440;28;20297;-72
2023/07/02 03:05:16;;;;;;;6.13;4.17;;;;;23.60;99639.00;;;;2064552;28;20219;-72
2023/07/02 03:06:16;;;;;;;7.15;4.78;;;;;23.60;99643.00;;;;2064151;28;20214;-72
2023/07/02 03:07:16;;;;;;;6.97;4.80;;;;;23.60;99638.00;;;;2052250;28;20270;-72
2023/07/02 03:08:17;;;;;;;6.30;4.67;;;;;23.60;99641.00;;;;2060565;28;20246;-72
2023/07/02 03:09:18;;;;;;;6.13;4.47;;;;;23.60;99643.00;;;;2054583;28;20208;-72
2023/07/02 03:10:18;;;;;;;6.60;4.50;;;;;23.60;99641.00;;;;2064460;28;20235;-72
2023/07/02 03:11:18;;;;;;;6.17;4.70;;;;;23.60;99647.00;;;;2067471;28;20213;-72
2023/07/02 03:12:19;;;;;;;7.20;5.30;;;;;23.50;99649.00;;;;2056608;28;20225;-72
2023/07/02 03:13:19;;;;;;;6.63;4.90;;;;;23.60;99646.00;;;;2069079;28;20207;-72
2023/07/02 03:14:19;;;;;;;5.47;4.73;;;;;23.60;99647.00;;;;2062217;28;20563;-72
2023/07/02 03:15:20;;;;;;;8.30;5.20;;;;;23.60;99643.00;;;;2059988;28;20742;-71
2023/07/02 03:16:21;;;;;;;7.00;5.40;;;;;23.60;99650.00;;;;2066533;28;20207;-71
2023/07/02 03:17:21;;;;;;;8.10;5.35;;;;;23.60;99654.00;;;;2054434;28;20203;-71
2023/07/02 03:18:22;;;;;;;6.67;5.13;;;;;23.60;99655.00;;;;2063442;28;20234;-71
2023/07/02 03:19:22;;;;;;;6.50;4.80;;;;;23.50;99650.00;;;;2064156;28;20207;-71
2023/07/02 03:20:22;;;;;;;7.10;5.20;;;;;23.60;99653.00;;;;2064002;28;20286;-71
2023/07/02 03:21:23;;;;;;;7.13;5.80;;;;;23.60;99665.00;;;;2063418;28;20202;-71
2023/07/02 03:22:23;;;;;;;6.70;5.37;;;;;23.50;99659.00;;;;2055696;28;20211;-71
2023/07/02 03:23:23;;;;;;;8.30;5.50;;;;;23.50;99663.00;;;;2063487;28;20203;-71
2023/07/02 03:24:24;;;;;;;9.00;5.30;;;;;23.50;99663.00;;;;2064134;28;20207;-71
2023/07/02 03:25:24;;;;;;;8.03;5.50;;;;;23.50;99642.00;;;;2063621;28;20214;-71
2023/07/02 03:26:24;;;;;;;6.90;5.23;;;;;23.50;99669.00;;;;2064322;28;20203;-72
2023/07/02 03:27:25;;;;;;;6.80;5.53;;;;;23.50;99664.00;;;;2051758;28;20223;-72
2023/07/02 03:28:25;;;;;;;7.60;5.67;;;;;23.60;99650.00;;;;2062788;28;20234;-72
2023/07/02 03:29:26;;;;;;;8.40;5.40;;;;;23.60;99665.00;;;;2059376;28;20840;-72
2023/07/02 03:30:26;;;;;;;8.40;5.43;;;;;23.60;99664.00;;;;2060878;28;20682;-72
2023/07/02 03:31:26;;;;;;;8.20;5.83;;;;;23.50;99656.00;;;;2064140;28;20207;-72
2023/07/02 03:32:27;;;;;;;6.70;5.37;;;;;23.50;99663.00;;;;2048200;28;20274;-72
2023/07/02 03:33:27;;;;;;;7.90;5.50;;;;;23.50;99669.00;;;;2056131;28;20662;-72
2023/07/02 03:34:27;;;;;;;8.80;5.60;;;;;23.50;99666.00;;;;2059026;28;20582;-72
2023/07/02 03:35:28;;;;;;;7.20;5.70;;;;;23.50;99661.00;;;;2055619;28;20683;-72
2023/07/02 03:36:28;;;;;;;7.70;6.17;;;;;23.50;99664.00;;;;2064697;28;20729;-72
2023/07/02 03:37:28;;;;;;;9.33;5.67;;;;;23.50;99671.00;;;;2055223;28;20199;-72
2023/07/02 03:38:29;;;;;;;9.73;6.63;;;;;23.50;99662.00;;;;2067923;28;20207;-72
2023/07/02 03:39:29;;;;;;;9.37;6.70;;;;;23.50;99668.00;;;;2065282;28;20226;-72
2023/07/02 03:40:29;;;;;;;6.70;5.83;;;;;23.50;99674.00;;;;2059502;28;20200;-71
2023/07/02 03:41:30;;;;;;;6.83;5.73;;;;;23.50;99678.00;;;;2062162;28;20222;-71
2023/07/02 03:42:32;;;;;;;10.10;6.40;;;;;23.50;99671.00;;;;2053716;28;20234;-71
2023/07/02 03:43:33;;;;;;;9.88;6.80;;;;;23.50;99680.00;;;;2064341;28;20203;-71
2023/07/02 03:44:33;;;;;;;8.60;6.43;;;;;23.50;99673.00;;;;2063214;28;20887;-71
2023/07/02 03:45:33;;;;;;;8.77;6.67;;;;;23.50;99684.00;;;;2064094;28;20698;-71
2023/07/02 03:46:34;;;;;;;8.03;6.00;;;;;23.50;99674.00;;;;2062979;28;20733;-71
2023/07/02 03:47:34;;;;;;;8.40;6.23;;;;;23.50;99682.00;;;;2054229;28;20238;-71
2023/07/02 03:48:35;;;;;;;8.60;6.30;;;;;23.50;99684.00;;;;2065231;28;21084;-71
2023/07/02 03:49:35;;;;;;;10.87;6.50;;;;;23.60;99686.00;;;;2065017;28;20766;-71
2023/07/02 03:50:35;;;;;;;8.30;6.00;;;;;23.50;99683.00;;;;2066750;28;20249;-71
2023/07/02 03:51:36;;;;;;;7.27;6.20;;;;;23.50;99688.00;;;;2062841;28;20250;-71
2023/07/02 03:52:36;;;;;;;9.40;6.63;;;;;23.60;99683.00;;;;2054676;28;20233;-71
2023/07/02 03:53:36;;;;;;;7.43;6.00;;;;;23.50;99689.00;;;;2065758;28;20246;-71
2023/07/02 03:54:37;;;;;;;8.37;6.50;;;;;23.50;99687.00;;;;2066964;28;20248;-71
2023/07/02 03:55:39;;;;;;;8.60;6.27;;;;;23.50;99690.00;;;;2066323;28;20735;-72
2023/07/02 03:56:39;;;;;;;9.43;6.45;;;;;23.50;99684.00;;;;2057880;28;20334;-72
2023/07/02 03:57:39;;;;;;;9.73;6.20;;;;;23.50;99691.00;;;;2053110;28;20215;-72
2023/07/02 03:58:40;;;;;;;10.17;6.67;;;;;23.50;99696.00;;;;2063960;28;20276;-72
2023/07/02 03:59:40;;;;;;;8.10;6.43;;;;;23.50;99694.00;;;;2068729;28;20607;-72
2023/07/02 04:00:41;;;;;;;10.53;7.10;;;;;23.50;99690.00;;;;2065374;28;20469;-72
2023/07/02 04:01:43;;;;;;;9.57;7.20;;;;;23.50;99701.00;;;;2060288;28;20219;-72
2023/07/02 04:02:43;;;;;;;9.73;6.88;;;;;23.50;99698.00;;;;2064007;28;20454;-72
2023/07/02 04:03:50;;;;;;;10.07;6.63;;;;;23.50;99698.00;;;;2065089;28;20211;-72
2023/07/02 04:04:50;;;;;;;9.77;6.85;;;;;23.50;99700.00;;;;2062142;28;20231;-72
2023/07/02 04:05:51;;;;;;;8.80;6.60;;;;;23.50;99701.00;;;;2056001;28;20219;-72
2023/07/02 04:06:51;;;;;;;10.23;7.07;;;;;23.50;99702.00;;;;2051893;28;20265;-72
2023/07/02 04:07:51;;;;;;;9.93;7.20;;;;;23.50;99701.00;;;;2069204;28;20242;-72
2023/07/02 04:08:52;;;;;;;9.97;7.10;;;;;23.50;99711.00;;;;2064089;28;20234;-72
2023/07/02 04:09:52;;;;;;;8.97;6.87;;;;;23.50;99702.00;;;;2064522;28;20222;-72
2023/07/02 04:10:52;;;;;;;9.27;6.80;;;;;23.50;99714.00;;;;2067358;28;20218;-72
2023/07/02 04:11:53;;;;;;;8.10;6.80;;;;;23.50;99717.00;;;;2053535;28;20219;-72
2023/07/02 04:12:53;;;;;;;9.00;6.90;;;;;23.50;99708.00;;;;2070350;28;20218;-72
2023/07/02 04:13:53;;;;;;;10.07;7.30;;;;;23.50;99714.00;;;;2062847;28;20626;-72
2023/07/02 04:14:54;;;;;;;11.00;7.57;;;;;23.50;99711.00;;;;2058242;28;20715;-72
2023/07/02 04:15:54;;;;;;;10.13;7.40;;;;;23.50;99710.00;;;;2065222;28;20724;-72
2023/07/02 04:16:55;;;;;;;10.80;7.50;;;;;23.50;99709.00;;;;2053744;28;20226;-72
2023/07/02 04:17:55;;;;;;;12.07;6.80;;;;;23.50;99714.00;;;;2056268;28;20773;-72
2023/07/02 04:18:55;;;;;;;9.70;7.03;;;;;23.50;99710.00;;;;2062737;28;20223;-74
2023/07/02 04:19:55;;;;;;;9.30;7.03;;;;;23.60;99713.00;;;;2055305;28;20254;-70
2023/07/02 04:20:57;;;;;;;8.13;6.57;;;;;23.50;99716.00;;;;2045371;28;20644;-70
2023/07/02 04:21:57;;;;;;;13.88;6.97;;;;;23.50;99715.00;;;;2038427;28;21080;-70
2023/07/02 04:22:57;;;;;;;9.83;6.63;;;;;23.50;99717.00;;;;2062990;28;20227;-70
2023/07/02 04:23:58;;;;;;;11.40;7.90;;;;;23.50;99706.00;;;;2067981;28;20206;-70
2023/07/02 04:24:58;;;;;;;12.03;7.23;;;;;23.60;99719.00;;;;2063385;28;20272;-70
2023/07/02 04:25:59;;;;;;;10.07;6.63;;;;;23.60;99716.00;;;;2068103;28;20214;-70
2023/07/02 04:26:59;;;;;;;9.33;7.13;;;;;23.60;99718.00;;;;2047871;28;20215;-70
2023/07/02 04:28:00;;;;;;;9.50;7.23;;;;;23.60;99712.00;;;;2063037;28;20238;-70
2023/07/02 04:29:00;;;;;;;12.90;8.47;;;;;23.60;99718.00;;;;2068818;28;20629;-70
2023/07/02 04:30:00;;;;;;;14.10;10.43;;;;;23.70;99726.00;;;;2054823;28;22420;-71
2023/07/02 04:31:01;;;;;;;15.33;10.30;;;;;23.80;99722.00;;;;2056049;28;20216;-71
2023/07/02 04:32:01;;;;;;;16.13;9.87;;;;;23.70;99726.00;;;;2056824;28;20243;-71
2023/07/02 04:33:01;;;;;;;22.13;11.80;;;;;23.70;99727.00;;;;2062642;28;20215;-71
2023/07/02 04:34:02;;;;;;;16.77;11.10;;;;;23.70;99726.00;;;;2068383;28;20214;-71
2023/07/02 04:35:02;;;;;;;21.93;12.77;;;;;23.70;99726.00;;;;2062785;28;20211;-71
2023/07/02 04:36:03;;;;;;;19.47;13.33;;;;;23.60;99726.00;;;;2063703;28;20218;-71
2023/07/02 04:37:04;;;;;;;19.23;13.33;;;;;23.70;99731.00;;;;2055286;28;20241;-71
2023/07/02 04:38:05;;;;;;;21.57;13.03;;;;;23.70;99731.00;;;;2063959;28;20466;-71
2023/07/02 04:39:05;;;;;;;18.93;12.73;;;;;23.70;99730.00;;;;2070857;28;20623;-71
2023/07/02 04:40:12;;;;;;;22.80;14.80;;;;;23.70;99728.00;;;;2064282;28;20958;-71
2023/07/02 04:41:12;;;;;;;23.25;14.50;;;;;23.70;99737.00;;;;2062925;28;20652;-70
2023/07/02 04:42:13;;;;;;;27.30;14.80;;;;;23.70;99726.00;;;;2045202;28;20271;-71
2023/07/02 04:43:15;;;;;;;17.53;12.30;;;;;23.80;99735.00;;;;2059156;28;20230;-71
2023/07/02 04:44:16;;;;;;;22.92;14.07;;;;;23.70;99740.00;;;;2065034;28;20494;-71
2023/07/02 04:45:16;;;;;;;18.90;13.73;;;;;23.70;99738.00;;;;2065515;28;20229;-71
2023/07/02 04:46:17;;;;;;;20.40;13.63;;;;;23.70;99727.00;;;;2061746;28;20246;-70
2023/07/02 04:47:18;;;;;;;19.40;12.70;;;;;23.70;99735.00;;;;2050432;28;20773;-70
2023/07/02 04:48:18;;;;;;;19.17;12.50;;;;;23.70;99744.00;;;;2058642;28;20214;-71
2023/07/02 04:49:18;;;;;;;21.03;13.70;;;;;23.60;99742.00;;;;2061836;28;20246;-71
2023/07/02 04:50:19;;;;;;;20.50;11.80;;;;;23.60;99743.00;;;;2067743;28;20214;-71
2023/07/02 04:51:20;;;;;;;18.00;12.17;;;;;23.60;99742.00;;;;2059930;28;20212;-71
2023/07/02 04:52:20;;;;;;;17.48;12.68;;;;;23.60;99743.00;;;;2045423;28;20722;-71
2023/07/02 04:53:21;;;;;;;16.07;11.77;;;;;23.60;99746.00;;;;2063797;28;20207;-71
2023/07/02 04:54:21;;;;;;;17.03;11.27;;;;;23.60;99734.00;;;;2064580;28;20234;-71
2023/07/02 04:55:21;;;;;;;17.57;11.53;;;;;23.60;99741.00;;;;2048967;28;20288;-71
2023/07/02 04:56:22;;;;;;;18.00;11.60;;;;;23.70;99723.00;;;;2042893;28;20209;-71
2023/07/02 04:57:22;;;;;;;19.73;11.80;;;;;23.60;99740.00;;;;2045106;28;20273;-71
2023/07/02 04:58:22;;;;;;;16.00;11.70;;;;;23.60;99742.00;;;;2053175;28;20203;-71
2023/07/02 04:59:23;;;;;;;14.80;11.10;;;;;23.60;99739.00;;;;2066145;28;20649;-71
2023/07/02 05:00:23;;;;;;;20.37;11.47;;;;;23.60;99737.00;;;;2066593;28;20856;-71
2023/07/02 05:01:23;;;;;;;23.90;12.73;;;;;23.60;99747.00;;;;2054597;28;20826;-70
2023/07/02 05:02:24;;;;;;;20.33;12.00;;;;;23.60;99742.00;;;;2045725;28;20216;-70
2023/07/02 05:03:26;;;;;;;18.03;11.90;;;;;23.60;99753.00;;;;2063000;28;20206;-70